sensor_id;sensor_type;location;lat;lon;timestamp;temperature;humidity
29031;DHT22;16122;50.236;11.734;2023-07-22T00:02:24;19.80;62.00
29031;DHT22;16122;50.236;11.734;2023-07-22T00:04:50;19.80;62.10
29031;DHT22;16122;50.236;11.734;2023-07-22T00:07:17;19.80;62.10
29031;DHT22;16122;50.236;11.734;2023-07-22T00:09:44;19.90;62.30
29031;DHT22;16122;50.236;11.734;2023-07-22T00:12:10;19.90;62.20
29031;DHT22;16122;50.236;11.734;2023-07-22T00:14:40;19.80;62.20
29031;DHT22;16122;50.236;11.734;2023-07-22T00:17:06;19.80;62.20
29031;DHT22;16122;50.236;11.734;2023-07-22T00:19:32;19.80;62.20
29031;DHT22;16122;50.236;11.734;2023-07-22T00:21:58;19.80;62.10
29031;DHT22;16122;50.236;11.734;2023-07-22T00:24:24;19.80;62.10
29031;DHT22;16122;50.236;11.734;2023-07-22T00:26:50;19.80;62.00
29031;DHT22;16122;50.236;11.734;2023-07-22T00:29:16;19.80;62.80
29031;DHT22;16122;50.236;11.734;2023-07-22T00:31:42;19.90;62.10
29031;DHT22;16122;50.236;11.734;2023-07-22T00:34:08;19.80;62.10
29031;DHT22;16122;50.236;11.734;2023-07-22T00:36:34;19.90;62.10
29031;DHT22;16122;50.236;11.734;2023-07-22T00:39:00;19.80;61.90
29031;DHT22;16122;50.236;11.734;2023-07-22T00:41:27;19.80;62.20
29031;DHT22;16122;50.236;11.734;2023-07-22T00:43:54;19.80;62.30
29031;DHT22;16122;50.236;11.734;2023-07-22T00:46:20;19.80;62.40
29031;DHT22;16122;50.236;11.734;2023-07-22T00:48:47;19.80;62.30
29031;DHT22;16122;50.236;11.734;2023-07-22T00:51:14;19.80;62.40
29031;DHT22;16122;50.236;11.734;2023-07-22T00:53:40;19.80;62.20
29031;DHT22;16122;50.236;11.734;2023-07-22T00:56:06;19.80;62.30
29031;DHT22;16122;50.236;11.734;2023-07-22T00:58:33;19.80;62.40
29031;DHT22;16122;50.236;11.734;2023-07-22T01:00:59;19.80;62.30
29031;DHT22;16122;50.236;11.734;2023-07-22T01:03:25;19.80;62.40
29031;DHT22;16122;50.236;11.734;2023-07-22T01:05:52;19.80;62.20
29031;DHT22;16122;50.236;11.734;2023-07-22T01:08:19;19.80;62.30
29031;DHT22;16122;50.236;11.734;2023-07-22T01:10:45;19.80;62.20
29031;DHT22;16122;50.236;11.734;2023-07-22T01:13:10;19.80;62.30
29031;DHT22;16122;50.236;11.734;2023-07-22T01:15:37;19.80;62.40
29031;DHT22;16122;50.236;11.734;2023-07-22T01:18:04;19.80;62.40
29031;DHT22;16122;50.236;11.734;2023-07-22T01:20:30;19.80;62.40
29031;DHT22;16122;50.236;11.734;2023-07-22T01:22:56;19.80;62.50
29031;DHT22;16122;50.236;11.734;2023-07-22T01:25:23;19.80;62.30
29031;DHT22;16122;50.236;11.734;2023-07-22T01:27:53;19.80;62.30
29031;DHT22;16122;50.236;11.734;2023-07-22T01:30:19;19.80;62.20
29031;DHT22;16122;50.236;11.734;2023-07-22T01:32:46;19.80;62.40
29031;DHT22;16122;50.236;11.734;2023-07-22T01:35:12;19.80;62.40
29031;DHT22;16122;50.236;11.734;2023-07-22T01:37:38;19.80;62.30
29031;DHT22;16122;50.236;11.734;2023-07-22T01:40:05;19.80;62.30
29031;DHT22;16122;50.236;11.734;2023-07-22T01:42:41;19.80;62.40
29031;DHT22;16122;50.236;11.734;2023-07-22T01:45:09;19.70;62.40
29031;DHT22;16122;50.236;11.734;2023-07-22T01:47:37;19.80;63.20
29031;DHT22;16122;50.236;11.734;2023-07-22T01:50:03;19.70;62.30
29031;DHT22;16122;50.236;11.734;2023-07-22T01:52:29;19.80;62.30
29031;DHT22;16122;50.236;11.734;2023-07-22T01:54:55;19.80;62.20
29031;DHT22;16122;50.236;11.734;2023-07-22T01:57:21;19.80;62.20
29031;DHT22;16122;50.236;11.734;2023-07-22T01:59:47;19.70;62.20
29031;DHT22;16122;50.236;11.734;2023-07-22T02:02:13;19.70;62.20
29031;DHT22;16122;50.236;11.734;2023-07-22T02:04:39;19.70;62.20
29031;DHT22;16122;50.236;11.734;2023-07-22T02:07:06;19.70;62.10
29031;DHT22;16122;50.236;11.734;2023-07-22T02:09:34;19.70;62.10
29031;DHT22;16122;50.236;11.734;2023-07-22T02:12:00;19.70;62.00
29031;DHT22;16122;50.236;11.734;2023-07-22T02:14:26;19.70;62.10
29031;DHT22;16122;50.236;11.734;2023-07-22T02:16:52;19.70;61.90
29031;DHT22;16122;50.236;11.734;2023-07-22T02:19:18;19.70;62.00
29031;DHT22;16122;50.236;11.734;2023-07-22T02:21:44;19.80;61.80
29031;DHT22;16122;50.236;11.734;2023-07-22T02:24:10;19.70;61.80
29031;DHT22;16122;50.236;11.734;2023-07-22T02:26:36;19.70;61.70
29031;DHT22;16122;50.236;11.734;2023-07-22T02:29:02;19.70;61.70
29031;DHT22;16122;50.236;11.734;2023-07-22T02:31:28;19.70;61.60
29031;DHT22;16122;50.236;11.734;2023-07-22T02:33:54;19.70;61.60
29031;DHT22;16122;50.236;11.734;2023-07-22T02:36:19;19.70;61.50
29031;DHT22;16122;50.236;11.734;2023-07-22T02:38:45;19.70;61.60
29031;DHT22;16122;50.236;11.734;2023-07-22T02:41:12;19.70;61.50
29031;DHT22;16122;50.236;11.734;2023-07-22T02:43:38;19.80;61.40
29031;DHT22;16122;50.236;11.734;2023-07-22T02:46:06;19.70;61.40
29031;DHT22;16122;50.236;11.734;2023-07-22T02:48:35;19.70;61.40
29031;DHT22;16122;50.236;11.734;2023-07-22T02:51:09;19.70;61.40
29031;DHT22;16122;50.236;11.734;2023-07-22T02:53:35;19.70;61.30
29031;DHT22;16122;50.236;11.734;2023-07-22T02:56:05;19.70;61.40
29031;DHT22;16122;50.236;11.734;2023-07-22T02:58:33;19.70;61.30
29031;DHT22;16122;50.236;11.734;2023-07-22T03:00:59;19.70;61.30
29031;DHT22;16122;50.236;11.734;2023-07-22T03:03:25;19.70;61.30
29031;DHT22;16122;50.236;11.734;2023-07-22T03:05:51;19.70;61.20
29031;DHT22;16122;50.236;11.734;2023-07-22T03:08:18;19.70;61.10
29031;DHT22;16122;50.236;11.734;2023-07-22T03:10:44;19.70;61.20
29031;DHT22;16122;50.236;11.734;2023-07-22T03:13:17;19.60;61.00
29031;DHT22;16122;50.236;11.734;2023-07-22T03:15:43;19.70;61.10
29031;DHT22;16122;50.236;11.734;2023-07-22T03:18:10;19.60;61.00
29031;DHT22;16122;50.236;11.734;2023-07-22T03:20:39;19.60;61.10
29031;DHT22;16122;50.236;11.734;2023-07-22T03:23:06;19.60;61.00
29031;DHT22;16122;50.236;11.734;2023-07-22T03:25:33;19.60;61.10
29031;DHT22;16122;50.236;11.734;2023-07-22T03:28:04;19.60;61.00
29031;DHT22;16122;50.236;11.734;2023-07-22T03:30:30;19.60;61.00
29031;DHT22;16122;50.236;11.734;2023-07-22T03:32:56;19.60;61.00
29031;DHT22;16122;50.236;11.734;2023-07-22T03:35:23;19.60;61.00
29031;DHT22;16122;50.236;11.734;2023-07-22T03:37:49;19.50;60.90
29031;DHT22;16122;50.236;11.734;2023-07-22T03:40:14;19.50;60.90
29031;DHT22;16122;50.236;11.734;2023-07-22T03:42:49;19.60;60.90
29031;DHT22;16122;50.236;11.734;2023-07-22T03:45:16;19.60;60.90
29031;DHT22;16122;50.236;11.734;2023-07-22T03:47:44;19.60;60.90
29031;DHT22;16122;50.236;11.734;2023-07-22T03:50:11;19.60;60.80
29031;DHT22;16122;50.236;11.734;2023-07-22T03:52:37;19.60;60.70
29031;DHT22;16122;50.236;11.734;2023-07-22T03:55:04;19.60;60.80
29031;DHT22;16122;50.236;11.734;2023-07-22T03:57:31;19.60;60.80
29031;DHT22;16122;50.236;11.734;2023-07-22T03:59:57;19.60;60.80
29031;DHT22;16122;50.236;11.734;2023-07-22T04:02:23;19.60;60.80
29031;DHT22;16122;50.236;11.734;2023-07-22T04:04:54;19.60;60.70
29031;DHT22;16122;50.236;11.734;2023-07-22T04:07:21;19.60;60.70
29031;DHT22;16122;50.236;11.734;2023-07-22T04:09:47;19.60;60.70
29031;DHT22;16122;50.236;11.734;2023-07-22T04:12:13;19.60;60.70
29031;DHT22;16122;50.236;11.734;2023-07-22T04:14:39;19.60;60.70
29031;DHT22;16122;50.236;11.734;2023-07-22T04:17:05;19.50;60.60
29031;DHT22;16122;50.236;11.734;2023-07-22T04:19:31;19.50;60.70
29031;DHT22;16122;50.236;11.734;2023-07-22T04:21:57;19.60;60.70
29031;DHT22;16122;50.236;11.734;2023-07-22T04:24:22;19.60;60.60
29031;DHT22;16122;50.236;11.734;2023-07-22T04:26:49;19.60;60.70
29031;DHT22;16122;50.236;11.734;2023-07-22T04:29:15;19.50;60.80
29031;DHT22;16122;50.236;11.734;2023-07-22T04:31:41;19.50;61.10
29031;DHT22;16122;50.236;11.734;2023-07-22T04:34:07;19.50;61.20
29031;DHT22;16122;50.236;11.734;2023-07-22T04:36:33;19.50;61.30
29031;DHT22;16122;50.236;11.734;2023-07-22T04:38:59;19.50;61.30
29031;DHT22;16122;50.236;11.734;2023-07-22T04:41:25;19.50;61.20
29031;DHT22;16122;50.236;11.734;2023-07-22T04:43:51;19.50;61.30
29031;DHT22;16122;50.236;11.734;2023-07-22T04:46:17;19.60;61.60
29031;DHT22;16122;50.236;11.734;2023-07-22T04:48:43;19.60;61.40
29031;DHT22;16122;50.236;11.734;2023-07-22T04:51:09;19.60;61.40
29031;DHT22;16122;50.236;11.734;2023-07-22T04:53:35;19.60;61.40
29031;DHT22;16122;50.236;11.734;2023-07-22T04:56:00;19.60;61.50
29031;DHT22;16122;50.236;11.734;2023-07-22T04:58:28;19.60;61.50
29031;DHT22;16122;50.236;11.734;2023-07-22T05:00:54;19.50;61.40
29031;DHT22;16122;50.236;11.734;2023-07-22T05:03:19;19.60;61.70
29031;DHT22;16122;50.236;11.734;2023-07-22T05:05:45;19.50;61.50
29031;DHT22;16122;50.236;11.734;2023-07-22T05:08:12;19.50;61.40
29031;DHT22;16122;50.236;11.734;2023-07-22T05:10:37;19.60;61.40
29031;DHT22;16122;50.236;11.734;2023-07-22T05:13:03;19.60;61.40
29031;DHT22;16122;50.236;11.734;2023-07-22T05:15:29;19.60;61.40
29031;DHT22;16122;50.236;11.734;2023-07-22T05:17:55;19.60;61.60
29031;DHT22;16122;50.236;11.734;2023-07-22T05:20:21;19.60;61.50
29031;DHT22;16122;50.236;11.734;2023-07-22T05:22:48;19.60;61.50
29031;DHT22;16122;50.236;11.734;2023-07-22T05:25:14;19.50;61.40
29031;DHT22;16122;50.236;11.734;2023-07-22T05:27:40;19.50;61.50
29031;DHT22;16122;50.236;11.734;2023-07-22T05:30:07;19.50;61.60
29031;DHT22;16122;50.236;11.734;2023-07-22T05:32:33;19.50;62.40
29031;DHT22;16122;50.236;11.734;2023-07-22T05:34:59;19.40;61.60
29031;DHT22;16122;50.236;11.734;2023-07-22T05:37:25;19.40;61.50
29031;DHT22;16122;50.236;11.734;2023-07-22T05:39:51;19.50;61.70
29031;DHT22;16122;50.236;11.734;2023-07-22T05:42:17;19.50;61.60
29031;DHT22;16122;50.236;11.734;2023-07-22T05:44:44;19.50;61.60
29031;DHT22;16122;50.236;11.734;2023-07-22T05:47:10;19.50;61.60
29031;DHT22;16122;50.236;11.734;2023-07-22T05:49:35;19.40;61.50
29031;DHT22;16122;50.236;11.734;2023-07-22T05:52:01;19.40;61.70
29031;DHT22;16122;50.236;11.734;2023-07-22T05:54:27;19.40;61.60
29031;DHT22;16122;50.236;11.734;2023-07-22T05:56:53;19.40;61.50
29031;DHT22;16122;50.236;11.734;2023-07-22T05:59:20;19.40;61.50
29031;DHT22;16122;50.236;11.734;2023-07-22T06:01:46;19.40;61.40
29031;DHT22;16122;50.236;11.734;2023-07-22T06:04:11;19.40;61.40
29031;DHT22;16122;50.236;11.734;2023-07-22T06:06:37;19.30;61.50
29031;DHT22;16122;50.236;11.734;2023-07-22T06:09:03;19.40;61.40
29031;DHT22;16122;50.236;11.734;2023-07-22T06:11:30;19.40;61.20
29031;DHT22;16122;50.236;11.734;2023-07-22T06:13:56;19.40;61.10
29031;DHT22;16122;50.236;11.734;2023-07-22T06:16:22;19.40;61.00
29031;DHT22;16122;50.236;11.734;2023-07-22T06:18:47;19.40;60.90
29031;DHT22;16122;50.236;11.734;2023-07-22T06:21:13;19.40;60.80
29031;DHT22;16122;50.236;11.734;2023-07-22T06:23:39;19.40;60.80
29031;DHT22;16122;50.236;11.734;2023-07-22T06:26:05;19.40;60.90
29031;DHT22;16122;50.236;11.734;2023-07-22T06:28:31;19.40;60.60
29031;DHT22;16122;50.236;11.734;2023-07-22T06:30:57;19.30;60.30
29031;DHT22;16122;50.236;11.734;2023-07-22T06:33:23;19.30;60.00
29031;DHT22;16122;50.236;11.734;2023-07-22T06:35:49;19.30;60.20
29031;DHT22;16122;50.236;11.734;2023-07-22T06:38:15;19.40;60.00
29031;DHT22;16122;50.236;11.734;2023-07-22T06:40:40;19.40;59.70
29031;DHT22;16122;50.236;11.734;2023-07-22T06:43:06;19.40;59.90
29031;DHT22;16122;50.236;11.734;2023-07-22T06:45:32;19.40;60.00
29031;DHT22;16122;50.236;11.734;2023-07-22T06:47:59;19.40;59.90
29031;DHT22;16122;50.236;11.734;2023-07-22T06:50:24;19.30;59.90
29031;DHT22;16122;50.236;11.734;2023-07-22T06:52:50;19.40;60.00
29031;DHT22;16122;50.236;11.734;2023-07-22T06:55:16;19.40;59.70
29031;DHT22;16122;50.236;11.734;2023-07-22T06:57:42;19.40;59.90
29031;DHT22;16122;50.236;11.734;2023-07-22T07:00:09;19.40;60.00
29031;DHT22;16122;50.236;11.734;2023-07-22T07:02:36;19.40;59.70
29031;DHT22;16122;50.236;11.734;2023-07-22T07:05:02;19.40;59.60
29031;DHT22;16122;50.236;11.734;2023-07-22T07:07:28;19.40;59.60
29031;DHT22;16122;50.236;11.734;2023-07-22T07:09:53;19.40;59.30
29031;DHT22;16122;50.236;11.734;2023-07-22T07:12:19;19.40;59.00
29031;DHT22;16122;50.236;11.734;2023-07-22T07:14:45;19.30;58.80
29031;DHT22;16122;50.236;11.734;2023-07-22T07:17:11;19.40;58.90
29031;DHT22;16122;50.236;11.734;2023-07-22T07:19:37;19.40;58.60
29031;DHT22;16122;50.236;11.734;2023-07-22T07:22:03;19.30;58.30
29031;DHT22;16122;50.236;11.734;2023-07-22T07:24:28;19.30;58.00
29031;DHT22;16122;50.236;11.734;2023-07-22T07:26:54;19.30;57.90
29031;DHT22;16122;50.236;11.734;2023-07-22T07:29:20;19.30;58.00
29031;DHT22;16122;50.236;11.734;2023-07-22T07:31:46;19.40;58.30
29031;DHT22;16122;50.236;11.734;2023-07-22T07:34:12;19.40;58.50
29031;DHT22;16122;50.236;11.734;2023-07-22T07:36:37;19.40;58.00
29031;DHT22;16122;50.236;11.734;2023-07-22T07:39:03;19.30;57.50
29031;DHT22;16122;50.236;11.734;2023-07-22T07:41:29;19.30;57.90
29031;DHT22;16122;50.236;11.734;2023-07-22T07:43:55;19.40;57.70
29031;DHT22;16122;50.236;11.734;2023-07-22T07:46:27;19.40;57.70
29031;DHT22;16122;50.236;11.734;2023-07-22T07:49:00;19.40;57.50
29031;DHT22;16122;50.236;11.734;2023-07-22T07:51:28;19.40;57.40
29031;DHT22;16122;50.236;11.734;2023-07-22T07:53:55;19.50;57.90
29031;DHT22;16122;50.236;11.734;2023-07-22T07:56:22;19.50;57.20
29031;DHT22;16122;50.236;11.734;2023-07-22T07:58:49;19.40;57.40
29031;DHT22;16122;50.236;11.734;2023-07-22T08:01:15;19.40;56.80
29031;DHT22;16122;50.236;11.734;2023-07-22T08:03:42;19.40;57.10
29031;DHT22;16122;50.236;11.734;2023-07-22T08:06:12;19.50;57.40
29031;DHT22;16122;50.236;11.734;2023-07-22T08:08:38;19.40;57.10
29031;DHT22;16122;50.236;11.734;2023-07-22T08:11:08;19.40;57.00
29031;DHT22;16122;50.236;11.734;2023-07-22T08:13:35;19.50;57.50
29031;DHT22;16122;50.236;11.734;2023-07-22T08:16:02;19.50;57.60
29031;DHT22;16122;50.236;11.734;2023-07-22T08:18:30;19.50;57.10
29031;DHT22;16122;50.236;11.734;2023-07-22T08:20:57;19.50;57.00
29031;DHT22;16122;50.236;11.734;2023-07-22T08:23:23;19.50;56.60
29031;DHT22;16122;50.236;11.734;2023-07-22T08:25:50;19.40;56.50
29031;DHT22;16122;50.236;11.734;2023-07-22T08:28:16;19.50;57.00
29031;DHT22;16122;50.236;11.734;2023-07-22T08:30:43;19.50;56.90
29031;DHT22;16122;50.236;11.734;2023-07-22T08:33:09;19.50;57.10
29031;DHT22;16122;50.236;11.734;2023-07-22T08:35:35;19.50;56.90
29031;DHT22;16122;50.236;11.734;2023-07-22T08:38:02;19.50;56.80
29031;DHT22;16122;50.236;11.734;2023-07-22T08:40:39;19.40;56.00
29031;DHT22;16122;50.236;11.734;2023-07-22T08:43:07;19.40;55.00
29031;DHT22;16122;50.236;11.734;2023-07-22T08:45:35;19.40;55.30
29031;DHT22;16122;50.236;11.734;2023-07-22T08:48:08;19.40;55.30
29031;DHT22;16122;50.236;11.734;2023-07-22T08:50:56;19.40;53.70
29031;DHT22;16122;50.236;11.734;2023-07-22T08:53:24;19.30;53.40
29031;DHT22;16122;50.236;11.734;2023-07-22T08:55:51;19.20;53.20
29031;DHT22;16122;50.236;11.734;2023-07-22T08:58:17;19.20;52.70
29031;DHT22;16122;50.236;11.734;2023-07-22T09:00:44;19.20;52.40
29031;DHT22;16122;50.236;11.734;2023-07-22T09:03:11;19.00;51.80
29031;DHT22;16122;50.236;11.734;2023-07-22T09:05:37;19.00;51.80
29031;DHT22;16122;50.236;11.734;2023-07-22T09:08:06;19.00;51.80
29031;DHT22;16122;50.236;11.734;2023-07-22T09:10:33;19.00;51.60
29031;DHT22;16122;50.236;11.734;2023-07-22T09:13:02;19.10;51.60
29031;DHT22;16122;50.236;11.734;2023-07-22T09:15:29;19.10;51.60
29031;DHT22;16122;50.236;11.734;2023-07-22T09:17:55;19.10;51.20
29031;DHT22;16122;50.236;11.734;2023-07-22T09:20:21;19.00;51.20
29031;DHT22;16122;50.236;11.734;2023-07-22T09:22:50;19.00;50.50
29031;DHT22;16122;50.236;11.734;2023-07-22T09:25:24;19.00;50.70
29031;DHT22;16122;50.236;11.734;2023-07-22T09:27:52;18.90;50.90
29031;DHT22;16122;50.236;11.734;2023-07-22T09:32:47;19.00;50.60
29031;DHT22;16122;50.236;11.734;2023-07-22T09:35:13;19.00;50.70
29031;DHT22;16122;50.236;11.734;2023-07-22T09:37:39;18.90;50.90
29031;DHT22;16122;50.236;11.734;2023-07-22T09:40:20;18.90;50.90
29031;DHT22;16122;50.236;11.734;2023-07-22T09:42:48;18.90;51.10
29031;DHT22;16122;50.236;11.734;2023-07-22T09:45:14;19.00;51.00
29031;DHT22;16122;50.236;11.734;2023-07-22T09:47:45;19.00;50.80
29031;DHT22;16122;50.236;11.734;2023-07-22T09:50:16;19.00;50.70
29031;DHT22;16122;50.236;11.734;2023-07-22T09:52:50;19.00;51.00
29031;DHT22;16122;50.236;11.734;2023-07-22T09:55:18;19.10;50.80
29031;DHT22;16122;50.236;11.734;2023-07-22T09:57:45;19.10;51.10
29031;DHT22;16122;50.236;11.734;2023-07-22T10:00:13;19.10;51.10
29031;DHT22;16122;50.236;11.734;2023-07-22T10:02:41;19.10;51.20
29031;DHT22;16122;50.236;11.734;2023-07-22T10:05:14;19.10;51.40
29031;DHT22;16122;50.236;11.734;2023-07-22T10:07:54;19.20;51.20
29031;DHT22;16122;50.236;11.734;2023-07-22T10:10:24;19.10;51.10
29031;DHT22;16122;50.236;11.734;2023-07-22T10:12:51;19.10;51.20
29031;DHT22;16122;50.236;11.734;2023-07-22T10:15:19;19.10;51.00
29031;DHT22;16122;50.236;11.734;2023-07-22T10:17:45;19.10;51.30
29031;DHT22;16122;50.236;11.734;2023-07-22T10:20:13;19.10;51.10
29031;DHT22;16122;50.236;11.734;2023-07-22T10:22:43;19.00;51.20
29031;DHT22;16122;50.236;11.734;2023-07-22T10:25:12;19.00;51.30
29031;DHT22;16122;50.236;11.734;2023-07-22T10:30:09;19.00;52.20
29031;DHT22;16122;50.236;11.734;2023-07-22T10:32:49;19.10;51.60
29031;DHT22;16122;50.236;11.734;2023-07-22T10:38:27;19.00;51.30
29031;DHT22;16122;50.236;11.734;2023-07-22T10:40:54;19.10;51.60
29031;DHT22;16122;50.236;11.734;2023-07-22T10:43:29;19.00;51.60
29031;DHT22;16122;50.236;11.734;2023-07-22T10:45:57;18.90;51.50
29031;DHT22;16122;50.236;11.734;2023-07-22T10:48:26;18.90;51.90
29031;DHT22;16122;50.236;11.734;2023-07-22T10:51:09;18.90;52.80
29031;DHT22;16122;50.236;11.734;2023-07-22T10:53:41;18.80;51.90
29031;DHT22;16122;50.236;11.734;2023-07-22T10:56:13;18.80;52.40
29031;DHT22;16122;50.236;11.734;2023-07-22T11:01:21;18.80;52.40
29031;DHT22;16122;50.236;11.734;2023-07-22T11:04:16;18.80;52.60
29031;DHT22;16122;50.236;11.734;2023-07-22T11:11:55;18.80;52.50
29031;DHT22;16122;50.236;11.734;2023-07-22T11:14:23;18.80;52.50
29031;DHT22;16122;50.236;11.734;2023-07-22T11:16:50;18.80;52.60
29031;DHT22;16122;50.236;11.734;2023-07-22T11:19:22;18.80;52.70
29031;DHT22;16122;50.236;11.734;2023-07-22T11:21:50;18.90;52.80
29031;DHT22;16122;50.236;11.734;2023-07-22T11:24:17;18.80;52.90
29031;DHT22;16122;50.236;11.734;2023-07-22T11:26:44;18.80;53.20
29031;DHT22;16122;50.236;11.734;2023-07-22T11:29:10;18.70;53.50
29031;DHT22;16122;50.236;11.734;2023-07-22T11:31:39;18.70;53.40
29031;DHT22;16122;50.236;11.734;2023-07-22T11:34:15;18.70;53.60
29031;DHT22;16122;50.236;11.734;2023-07-22T11:36:41;18.80;53.60
29031;DHT22;16122;50.236;11.734;2023-07-22T11:39:09;18.70;53.70
29031;DHT22;16122;50.236;11.734;2023-07-22T11:41:36;18.80;54.10
29031;DHT22;16122;50.236;11.734;2023-07-22T11:44:04;18.80;54.20
29031;DHT22;16122;50.236;11.734;2023-07-22T11:46:58;18.80;54.20
29031;DHT22;16122;50.236;11.734;2023-07-22T11:49:25;18.80;54.10
29031;DHT22;16122;50.236;11.734;2023-07-22T11:51:54;18.80;54.70
29031;DHT22;16122;50.236;11.734;2023-07-22T11:54:21;18.80;54.20
29031;DHT22;16122;50.236;11.734;2023-07-22T11:56:47;18.80;54.40
29031;DHT22;16122;50.236;11.734;2023-07-22T11:59:13;18.80;54.30
29031;DHT22;16122;50.236;11.734;2023-07-22T12:01:39;18.80;54.20
29031;DHT22;16122;50.236;11.734;2023-07-22T12:04:10;18.80;54.20
29031;DHT22;16122;50.236;11.734;2023-07-22T12:06:37;18.80;54.40
29031;DHT22;16122;50.236;11.734;2023-07-22T12:09:03;18.90;54.40
29031;DHT22;16122;50.236;11.734;2023-07-22T12:11:32;18.90;54.60
29031;DHT22;16122;50.236;11.734;2023-07-22T12:14:12;19.00;54.70
29031;DHT22;16122;50.236;11.734;2023-07-22T12:16:42;18.90;54.60
29031;DHT22;16122;50.236;11.734;2023-07-22T12:19:09;18.80;54.70
29031;DHT22;16122;50.236;11.734;2023-07-22T12:21:35;18.90;54.60
29031;DHT22;16122;50.236;11.734;2023-07-22T12:24:01;19.00;54.50
29031;DHT22;16122;50.236;11.734;2023-07-22T12:26:28;19.00;54.40
29031;DHT22;16122;50.236;11.734;2023-07-22T12:28:54;19.10;54.50
29031;DHT22;16122;50.236;11.734;2023-07-22T12:31:20;19.10;54.60
29031;DHT22;16122;50.236;11.734;2023-07-22T12:33:46;19.10;54.70
29031;DHT22;16122;50.236;11.734;2023-07-22T12:36:12;19.10;54.70
29031;DHT22;16122;50.236;11.734;2023-07-22T12:38:37;19.20;54.90
29031;DHT22;16122;50.236;11.734;2023-07-22T12:41:03;19.20;54.90
29031;DHT22;16122;50.236;11.734;2023-07-22T12:43:29;19.20;54.60
29031;DHT22;16122;50.236;11.734;2023-07-22T12:45:56;19.20;54.30
29031;DHT22;16122;50.236;11.734;2023-07-22T12:48:22;19.10;54.00
29031;DHT22;16122;50.236;11.734;2023-07-22T12:50:50;19.10;54.20
29031;DHT22;16122;50.236;11.734;2023-07-22T12:53:16;19.20;54.40
29031;DHT22;16122;50.236;11.734;2023-07-22T12:55:42;19.20;54.20
29031;DHT22;16122;50.236;11.734;2023-07-22T12:58:08;19.20;54.30
29031;DHT22;16122;50.236;11.734;2023-07-22T13:00:34;19.20;54.00
29031;DHT22;16122;50.236;11.734;2023-07-22T13:03:01;19.20;52.80
29031;DHT22;16122;50.236;11.734;2023-07-22T13:05:27;19.20;52.90
29031;DHT22;16122;50.236;11.734;2023-07-22T13:07:53;19.20;53.30
29031;DHT22;16122;50.236;11.734;2023-07-22T13:10:22;19.20;53.60
29031;DHT22;16122;50.236;11.734;2023-07-22T13:12:51;19.20;53.60
29031;DHT22;16122;50.236;11.734;2023-07-22T13:15:17;19.20;53.80
29031;DHT22;16122;50.236;11.734;2023-07-22T13:17:43;19.20;54.10
29031;DHT22;16122;50.236;11.734;2023-07-22T13:20:09;19.20;54.10
29031;DHT22;16122;50.236;11.734;2023-07-22T13:22:38;19.20;54.20
29031;DHT22;16122;50.236;11.734;2023-07-22T13:25:04;19.20;54.10
29031;DHT22;16122;50.236;11.734;2023-07-22T13:27:30;19.20;54.10
29031;DHT22;16122;50.236;11.734;2023-07-22T13:29:56;19.20;54.10
29031;DHT22;16122;50.236;11.734;2023-07-22T13:32:23;19.20;54.30
29031;DHT22;16122;50.236;11.734;2023-07-22T13:34:49;19.20;54.30
29031;DHT22;16122;50.236;11.734;2023-07-22T13:37:15;19.20;54.30
29031;DHT22;16122;50.236;11.734;2023-07-22T13:39:41;19.20;54.30
29031;DHT22;16122;50.236;11.734;2023-07-22T13:42:07;19.20;54.20
29031;DHT22;16122;50.236;11.734;2023-07-22T13:44:34;19.30;54.30
29031;DHT22;16122;50.236;11.734;2023-07-22T13:46:59;19.20;54.20
29031;DHT22;16122;50.236;11.734;2023-07-22T13:49:25;19.30;54.30
29031;DHT22;16122;50.236;11.734;2023-07-22T13:51:51;19.30;54.30
29031;DHT22;16122;50.236;11.734;2023-07-22T13:54:17;19.30;54.30
29031;DHT22;16122;50.236;11.734;2023-07-22T13:56:43;19.30;54.40
29031;DHT22;16122;50.236;11.734;2023-07-22T13:59:13;19.30;54.30
29031;DHT22;16122;50.236;11.734;2023-07-22T14:01:39;19.30;54.30
29031;DHT22;16122;50.236;11.734;2023-07-22T14:04:05;19.30;54.20
29031;DHT22;16122;50.236;11.734;2023-07-22T14:06:31;19.30;54.10
29031;DHT22;16122;50.236;11.734;2023-07-22T14:08:58;19.30;54.10
29031;DHT22;16122;50.236;11.734;2023-07-22T14:11:24;19.30;54.10
29031;DHT22;16122;50.236;11.734;2023-07-22T14:13:50;19.30;54.10
29031;DHT22;16122;50.236;11.734;2023-07-22T14:16:19;19.30;54.10
29031;DHT22;16122;50.236;11.734;2023-07-22T14:18:45;19.30;53.90
29031;DHT22;16122;50.236;11.734;2023-07-22T14:21:11;19.30;53.80
29031;DHT22;16122;50.236;11.734;2023-07-22T14:23:37;19.30;53.90
29031;DHT22;16122;50.236;11.734;2023-07-22T14:26:03;19.30;53.90
29031;DHT22;16122;50.236;11.734;2023-07-22T14:28:29;19.40;54.10
29031;DHT22;16122;50.236;11.734;2023-07-22T14:30:55;19.40;53.80
29031;DHT22;16122;50.236;11.734;2023-07-22T14:33:20;19.40;53.90
29031;DHT22;16122;50.236;11.734;2023-07-22T14:35:46;19.40;53.90
29031;DHT22;16122;50.236;11.734;2023-07-22T14:38:12;19.40;54.00
29031;DHT22;16122;50.236;11.734;2023-07-22T14:40:38;19.40;54.00
29031;DHT22;16122;50.236;11.734;2023-07-22T14:43:03;19.40;54.00
29031;DHT22;16122;50.236;11.734;2023-07-22T14:45:29;19.40;53.90
29031;DHT22;16122;50.236;11.734;2023-07-22T14:47:56;19.40;53.90
29031;DHT22;16122;50.236;11.734;2023-07-22T14:50:21;19.40;53.70
29031;DHT22;16122;50.236;11.734;2023-07-22T14:52:48;19.40;53.70
29031;DHT22;16122;50.236;11.734;2023-07-22T14:55:13;19.50;53.80
29031;DHT22;16122;50.236;11.734;2023-07-22T14:57:39;19.50;53.80
29031;DHT22;16122;50.236;11.734;2023-07-22T15:00:06;19.50;54.00
29031;DHT22;16122;50.236;11.734;2023-07-22T15:02:33;19.50;54.20
29031;DHT22;16122;50.236;11.734;2023-07-22T15:04:58;19.40;54.20
29031;DHT22;16122;50.236;11.734;2023-07-22T15:07:24;19.40;54.30
29031;DHT22;16122;50.236;11.734;2023-07-22T15:09:52;19.50;54.40
29031;DHT22;16122;50.236;11.734;2023-07-22T15:12:19;19.50;54.30
29031;DHT22;16122;50.236;11.734;2023-07-22T15:14:45;19.50;54.30
29031;DHT22;16122;50.236;11.734;2023-07-22T15:17:11;19.50;54.30
29031;DHT22;16122;50.236;11.734;2023-07-22T15:19:36;19.50;54.40
29031;DHT22;16122;50.236;11.734;2023-07-22T15:22:02;19.50;54.80
29031;DHT22;16122;50.236;11.734;2023-07-22T15:24:28;19.50;54.30
29031;DHT22;16122;50.236;11.734;2023-07-22T15:26:54;19.50;54.20
29031;DHT22;16122;50.236;11.734;2023-07-22T15:29:20;19.50;54.30
29031;DHT22;16122;50.236;11.734;2023-07-22T15:31:46;19.50;54.60